sensor_id;sensor_type;location;lat;lon;timestamp;P1;durP1;ratioP1;P2;durP2;ratioP2
32186;SDS011;18686;53.084;8.872;2022-09-09T00:01:15;164.65;;;54.10;;
32186;SDS011;18686;53.084;8.872;2022-09-09T00:03:59;142.15;;;49.90;;
32186;SDS011;18686;53.084;8.872;2022-09-09T00:06:33;109.03;;;42.03;;
32186;SDS011;18686;53.084;8.872;2022-09-09T00:09:13;164.80;;;55.42;;
32186;SDS011;18686;53.084;8.872;2022-09-09T00:11:46;164.63;;;56.00;;
32186;SDS011;18686;53.084;8.872;2022-09-09T00:14:20;205.98;;;64.07;;
32186;SDS011;18686;53.084;8.872;2022-09-09T00:16:55;180.25;;;59.20;;
32186;SDS011;18686;53.084;8.872;2022-09-09T00:19:28;186.82;;;62.05;;
32186;SDS011;18686;53.084;8.872;2022-09-09T00:22:07;196.82;;;64.50;;
32186;SDS011;18686;53.084;8.872;2022-09-09T00:24:43;171.25;;;61.75;;
32186;SDS011;18686;53.084;8.872;2022-09-09T00:27:16;164.35;;;59.75;;
32186;SDS011;18686;53.084;8.872;2022-09-09T00:29:51;200.48;;;66.57;;
32186;SDS011;18686;53.084;8.872;2022-09-09T00:32:22;195.38;;;68.18;;
32186;SDS011;18686;53.084;8.872;2022-09-09T00:34:56;168.98;;;62.33;;
32186;SDS011;18686;53.084;8.872;2022-09-09T00:40:01;192.88;;;66.00;;
32186;SDS011;18686;53.084;8.872;2022-09-09T00:42:42;178.95;;;64.25;;
32186;SDS011;18686;53.084;8.872;2022-09-09T00:45:18;174.18;;;63.40;;
32186;SDS011;18686;53.084;8.872;2022-09-09T00:47:58;165.60;;;58.88;;
32186;SDS011;18686;53.084;8.872;2022-09-09T00:50:42;176.15;;;62.70;;
32186;SDS011;18686;53.084;8.872;2022-09-09T00:53:19;193.02;;;66.97;;
32186;SDS011;18686;53.084;8.872;2022-09-09T00:55:58;176.57;;;64.80;;
32186;SDS011;18686;53.084;8.872;2022-09-09T00:58:35;161.15;;;60.17;;
32186;SDS011;18686;53.084;8.872;2022-09-09T01:01:03;167.73;;;61.45;;
32186;SDS011;18686;53.084;8.872;2022-09-09T01:03:34;161.73;;;60.15;;
32186;SDS011;18686;53.084;8.872;2022-09-09T01:06:13;167.55;;;61.75;;
32186;SDS011;18686;53.084;8.872;2022-09-09T01:11:48;150.13;;;56.47;;
32186;SDS011;18686;53.084;8.872;2022-09-09T01:14:29;138.02;;;55.25;;
32186;SDS011;18686;53.084;8.872;2022-09-09T01:17:08;136.60;;;52.35;;
32186;SDS011;18686;53.084;8.872;2022-09-09T01:19:50;134.55;;;55.17;;
32186;SDS011;18686;53.084;8.872;2022-09-09T01:22:28;137.65;;;54.00;;
32186;SDS011;18686;53.084;8.872;2022-09-09T01:25:11;141.18;;;53.28;;
32186;SDS011;18686;53.084;8.872;2022-09-09T01:28:08;159.43;;;57.30;;
32186;SDS011;18686;53.084;8.872;2022-09-09T01:30:38;114.30;;;45.95;;
32186;SDS011;18686;53.084;8.872;2022-09-09T01:33:12;129.60;;;51.15;;
32186;SDS011;18686;53.084;8.872;2022-09-09T01:35:45;133.77;;;51.80;;
32186;SDS011;18686;53.084;8.872;2022-09-09T01:38:19;131.82;;;49.33;;
32186;SDS011;18686;53.084;8.872;2022-09-09T01:40:50;131.35;;;50.97;;
32186;SDS011;18686;53.084;8.872;2022-09-09T01:43:25;127.88;;;49.20;;
32186;SDS011;18686;53.084;8.872;2022-09-09T01:45:55;138.25;;;51.53;;
32186;SDS011;18686;53.084;8.872;2022-09-09T01:48:27;119.28;;;46.85;;
32186;SDS011;18686;53.084;8.872;2022-09-09T01:51:04;125.60;;;49.55;;
32186;SDS011;18686;53.084;8.872;2022-09-09T01:53:32;124.35;;;47.38;;
32186;SDS011;18686;53.084;8.872;2022-09-09T01:56:07;131.38;;;50.17;;
32186;SDS011;18686;53.084;8.872;2022-09-09T01:58:51;131.25;;;50.00;;
32186;SDS011;18686;53.084;8.872;2022-09-09T02:01:42;127.90;;;51.60;;
32186;SDS011;18686;53.084;8.872;2022-09-09T02:04:27;111.45;;;45.78;;
32186;SDS011;18686;53.084;8.872;2022-09-09T02:07:10;129.07;;;50.60;;
32186;SDS011;18686;53.084;8.872;2022-09-09T02:09:49;119.43;;;48.83;;
32186;SDS011;18686;53.084;8.872;2022-09-09T02:12:22;126.97;;;50.92;;
32186;SDS011;18686;53.084;8.872;2022-09-09T02:14:58;113.88;;;46.22;;
32186;SDS011;18686;53.084;8.872;2022-09-09T02:17:41;131.90;;;52.80;;
32186;SDS011;18686;53.084;8.872;2022-09-09T02:20:14;139.35;;;53.35;;
32186;SDS011;18686;53.084;8.872;2022-09-09T02:22:47;131.43;;;52.45;;
32186;SDS011;18686;53.084;8.872;2022-09-09T02:25:21;129.10;;;51.58;;
32186;SDS011;18686;53.084;8.872;2022-09-09T02:27:54;112.75;;;47.88;;
32186;SDS011;18686;53.084;8.872;2022-09-09T02:30:26;92.55;;;41.10;;
32186;SDS011;18686;53.084;8.872;2022-09-09T02:32:58;131.32;;;51.67;;
32186;SDS011;18686;53.084;8.872;2022-09-09T02:36:01;118.38;;;51.15;;
32186;SDS011;18686;53.084;8.872;2022-09-09T02:38:35;112.18;;;48.25;;
32186;SDS011;18686;53.084;8.872;2022-09-09T02:41:11;115.03;;;47.53;;
32186;SDS011;18686;53.084;8.872;2022-09-09T02:43:39;135.95;;;51.55;;
32186;SDS011;18686;53.084;8.872;2022-09-09T02:46:17;98.32;;;46.47;;
32186;SDS011;18686;53.084;8.872;2022-09-09T02:48:59;123.05;;;51.22;;
32186;SDS011;18686;53.084;8.872;2022-09-09T02:51:37;121.90;;;50.33;;
32186;SDS011;18686;53.084;8.872;2022-09-09T02:54:16;109.03;;;45.72;;
32186;SDS011;18686;53.084;8.872;2022-09-09T02:56:51;128.85;;;49.92;;
32186;SDS011;18686;53.084;8.872;2022-09-09T02:59:27;105.03;;;46.42;;
32186;SDS011;18686;53.084;8.872;2022-09-09T03:01:58;111.80;;;46.63;;
32186;SDS011;18686;53.084;8.872;2022-09-09T03:04:26;101.78;;;43.80;;
32186;SDS011;18686;53.084;8.872;2022-09-09T03:06:56;104.22;;;45.00;;
32186;SDS011;18686;53.084;8.872;2022-09-09T03:09:24;120.30;;;49.22;;
32186;SDS011;18686;53.084;8.872;2022-09-09T03:11:54;113.38;;;47.00;;
32186;SDS011;18686;53.084;8.872;2022-09-09T03:14:22;97.53;;;43.40;;
32186;SDS011;18686;53.084;8.872;2022-09-09T03:16:52;103.78;;;44.63;;
32186;SDS011;18686;53.084;8.872;2022-09-09T03:19:24;111.32;;;46.97;;
32186;SDS011;18686;53.084;8.872;2022-09-09T03:21:52;115.50;;;47.65;;
32186;SDS011;18686;53.084;8.872;2022-09-09T03:24:22;114.10;;;47.53;;
32186;SDS011;18686;53.084;8.872;2022-09-09T03:26:50;95.82;;;44.17;;
32186;SDS011;18686;53.084;8.872;2022-09-09T03:29:19;117.97;;;47.70;;
32186;SDS011;18686;53.084;8.872;2022-09-09T03:31:49;103.85;;;44.40;;
32186;SDS011;18686;53.084;8.872;2022-09-09T03:34:17;100.88;;;44.28;;
32186;SDS011;18686;53.084;8.872;2022-09-09T03:36:47;98.72;;;43.95;;
32186;SDS011;18686;53.084;8.872;2022-09-09T03:39:17;91.68;;;40.70;;
32186;SDS011;18686;53.084;8.872;2022-09-09T03:41:45;79.15;;;38.10;;
32186;SDS011;18686;53.084;8.872;2022-09-09T03:44:14;93.55;;;40.13;;
32186;SDS011;18686;53.084;8.872;2022-09-09T03:46:42;90.07;;;39.80;;
32186;SDS011;18686;53.084;8.872;2022-09-09T03:49:13;82.18;;;37.08;;
32186;SDS011;18686;53.084;8.872;2022-09-09T03:51:41;95.13;;;39.55;;
32186;SDS011;18686;53.084;8.872;2022-09-09T03:54:13;83.95;;;36.95;;
32186;SDS011;18686;53.084;8.872;2022-09-09T03:56:41;93.55;;;39.15;;
32186;SDS011;18686;53.084;8.872;2022-09-09T03:59:11;91.68;;;38.50;;
32186;SDS011;18686;53.084;8.872;2022-09-09T04:01:41;92.70;;;37.97;;
32186;SDS011;18686;53.084;8.872;2022-09-09T04:04:11;78.32;;;35.63;;
32186;SDS011;18686;53.084;8.872;2022-09-09T04:06:40;78.65;;;34.08;;
32186;SDS011;18686;53.084;8.872;2022-09-09T04:09:08;71.82;;;33.63;;
32186;SDS011;18686;53.084;8.872;2022-09-09T04:11:38;70.35;;;31.63;;
32186;SDS011;18686;53.084;8.872;2022-09-09T04:14:07;60.97;;;28.90;;
32186;SDS011;18686;53.084;8.872;2022-09-09T04:16:35;64.57;;;28.50;;
32186;SDS011;18686;53.084;8.872;2022-09-09T04:19:04;66.00;;;29.23;;
32186;SDS011;18686;53.084;8.872;2022-09-09T04:21:33;59.55;;;27.80;;
32186;SDS011;18686;53.084;8.872;2022-09-09T04:24:01;55.85;;;25.85;;
32186;SDS011;18686;53.084;8.872;2022-09-09T04:26:29;53.15;;;25.33;;
32186;SDS011;18686;53.084;8.872;2022-09-09T04:29:00;54.72;;;25.25;;
32186;SDS011;18686;53.084;8.872;2022-09-09T04:31:28;57.72;;;24.23;;
32186;SDS011;18686;53.084;8.872;2022-09-09T04:33:56;47.40;;;23.02;;
32186;SDS011;18686;53.084;8.872;2022-09-09T04:36:25;53.05;;;22.88;;
32186;SDS011;18686;53.084;8.872;2022-09-09T04:38:57;53.53;;;23.73;;
32186;SDS011;18686;53.084;8.872;2022-09-09T04:41:26;49.30;;;22.83;;
32186;SDS011;18686;53.084;8.872;2022-09-09T04:43:54;50.38;;;22.05;;
32186;SDS011;18686;53.084;8.872;2022-09-09T04:46:24;51.83;;;21.02;;
32186;SDS011;18686;53.084;8.872;2022-09-09T04:48:52;44.88;;;22.20;;
32186;SDS011;18686;53.084;8.872;2022-09-09T04:51:25;45.00;;;19.95;;
32186;SDS011;18686;53.084;8.872;2022-09-09T04:53:53;38.80;;;19.42;;
32186;SDS011;18686;53.084;8.872;2022-09-09T04:56:22;38.05;;;19.23;;
32186;SDS011;18686;53.084;8.872;2022-09-09T05:01:47;38.45;;;18.90;;
32186;SDS011;18686;53.084;8.872;2022-09-09T05:04:16;38.10;;;17.98;;
32186;SDS011;18686;53.084;8.872;2022-09-09T05:06:45;35.25;;;17.80;;
32186;SDS011;18686;53.084;8.872;2022-09-09T05:09:14;37.35;;;17.48;;
32186;SDS011;18686;53.084;8.872;2022-09-09T05:11:44;34.65;;;16.42;;
32186;SDS011;18686;53.084;8.872;2022-09-09T05:14:22;39.30;;;15.70;;
32186;SDS011;18686;53.084;8.872;2022-09-09T05:16:54;27.40;;;14.43;;
32186;SDS011;18686;53.084;8.872;2022-09-09T05:19:23;34.60;;;15.98;;
32186;SDS011;18686;53.084;8.872;2022-09-09T05:21:52;32.25;;;15.93;;
32186;SDS011;18686;53.084;8.872;2022-09-09T05:24:26;29.08;;;15.13;;
32186;SDS011;18686;53.084;8.872;2022-09-09T05:26:57;29.13;;;14.90;;
32186;SDS011;18686;53.084;8.872;2022-09-09T05:29:28;33.30;;;14.48;;
32186;SDS011;18686;53.084;8.872;2022-09-09T05:31:57;33.58;;;15.10;;
32186;SDS011;18686;53.084;8.872;2022-09-09T05:34:26;30.00;;;15.13;;
32186;SDS011;18686;53.084;8.872;2022-09-09T05:36:54;31.63;;;14.77;;
32186;SDS011;18686;53.084;8.872;2022-09-09T05:39:23;31.35;;;15.43;;
32186;SDS011;18686;53.084;8.872;2022-09-09T05:41:51;35.03;;;15.68;;
32186;SDS011;18686;53.084;8.872;2022-09-09T05:44:20;33.58;;;14.88;;
32186;SDS011;18686;53.084;8.872;2022-09-09T05:46:49;37.20;;;15.95;;
32186;SDS011;18686;53.084;8.872;2022-09-09T05:49:19;30.15;;;15.52;;
32186;SDS011;18686;53.084;8.872;2022-09-09T05:51:47;32.40;;;15.15;;
32186;SDS011;18686;53.084;8.872;2022-09-09T05:54:18;33.20;;;15.93;;
32186;SDS011;18686;53.084;8.872;2022-09-09T05:56:49;29.15;;;15.20;;
32186;SDS011;18686;53.084;8.872;2022-09-09T05:59:19;25.88;;;15.10;;
32186;SDS011;18686;53.084;8.872;2022-09-09T06:01:49;29.13;;;15.98;;
32186;SDS011;18686;53.084;8.872;2022-09-09T06:04:25;25.40;;;13.68;;
32186;SDS011;18686;53.084;8.872;2022-09-09T06:06:53;27.98;;;13.45;;
32186;SDS011;18686;53.084;8.872;2022-09-09T06:09:22;27.58;;;14.10;;
32186;SDS011;18686;53.084;8.872;2022-09-09T06:11:50;25.30;;;13.07;;
32186;SDS011;18686;53.084;8.872;2022-09-09T06:14:21;20.83;;;12.88;;
32186;SDS011;18686;53.084;8.872;2022-09-09T06:16:52;21.48;;;11.68;;
32186;SDS011;18686;53.084;8.872;2022-09-09T06:19:22;30.55;;;13.27;;
32186;SDS011;18686;53.084;8.872;2022-09-09T06:21:57;18.88;;;11.68;;
32186;SDS011;18686;53.084;8.872;2022-09-09T06:24:27;26.30;;;12.80;;
32186;SDS011;18686;53.084;8.872;2022-09-09T06:26:57;31.77;;;12.32;;
32186;SDS011;18686;53.084;8.872;2022-09-09T06:29:30;28.83;;;11.27;;
32186;SDS011;18686;53.084;8.872;2022-09-09T06:32:00;26.63;;;11.65;;
32186;SDS011;18686;53.084;8.872;2022-09-09T06:34:29;20.45;;;9.70;;
32186;SDS011;18686;53.084;8.872;2022-09-09T06:37:00;28.75;;;9.75;;
32186;SDS011;18686;53.084;8.872;2022-09-09T06:39:34;16.45;;;9.50;;
32186;SDS011;18686;53.084;8.872;2022-09-09T06:42:02;16.20;;;8.57;;
32186;SDS011;18686;53.084;8.872;2022-09-09T06:44:54;14.35;;;7.18;;
32186;SDS011;18686;53.084;8.872;2022-09-09T06:47:45;19.55;;;7.07;;
32186;SDS011;18686;53.084;8.872;2022-09-09T06:50:13;24.95;;;7.53;;
32186;SDS011;18686;53.084;8.872;2022-09-09T06:52:46;15.90;;;6.65;;
32186;SDS011;18686;53.084;8.872;2022-09-09T06:55:15;19.65;;;6.10;;
32186;SDS011;18686;53.084;8.872;2022-09-09T06:57:44;12.98;;;6.95;;
32186;SDS011;18686;53.084;8.872;2022-09-09T07:00:17;10.43;;;5.88;;
32186;SDS011;18686;53.084;8.872;2022-09-09T07:02:45;8.52;;;5.25;;
32186;SDS011;18686;53.084;8.872;2022-09-09T07:05:14;6.28;;;4.38;;
32186;SDS011;18686;53.084;8.872;2022-09-09T07:07:44;6.82;;;3.80;;
32186;SDS011;18686;53.084;8.872;2022-09-09T07:10:17;8.35;;;4.00;;
32186;SDS011;18686;53.084;8.872;2022-09-09T07:12:49;5.88;;;2.95;;
32186;SDS011;18686;53.084;8.872;2022-09-09T07:15:19;5.50;;;2.30;;
32186;SDS011;18686;53.084;8.872;2022-09-09T07:17:49;4.30;;;2.13;;
32186;SDS011;18686;53.084;8.872;2022-09-09T07:20:17;8.48;;;2.10;;
32186;SDS011;18686;53.084;8.872;2022-09-09T07:22:48;3.97;;;1.40;;
32186;SDS011;18686;53.084;8.872;2022-09-09T07:25:16;2.50;;;0.88;;
32186;SDS011;18686;53.084;8.872;2022-09-09T07:27:45;4.93;;;1.33;;
32186;SDS011;18686;53.084;8.872;2022-09-09T07:30:13;5.45;;;1.65;;
32186;SDS011;18686;53.084;8.872;2022-09-09T07:32:51;3.33;;;1.63;;
32186;SDS011;18686;53.084;8.872;2022-09-09T07:35:20;2.97;;;1.13;;
32186;SDS011;18686;53.084;8.872;2022-09-09T07:37:49;7.35;;;1.98;;
32186;SDS011;18686;53.084;8.872;2022-09-09T07:40:18;5.70;;;1.50;;
32186;SDS011;18686;53.084;8.872;2022-09-09T07:42:48;2.50;;;1.15;;
32186;SDS011;18686;53.084;8.872;2022-09-09T07:45:16;2.85;;;1.25;;
32186;SDS011;18686;53.084;8.872;2022-09-09T07:47:45;4.85;;;1.40;;
32186;SDS011;18686;53.084;8.872;2022-09-09T07:50:15;6.03;;;1.50;;
32186;SDS011;18686;53.084;8.872;2022-09-09T07:52:43;3.38;;;1.10;;
32186;SDS011;18686;53.084;8.872;2022-09-09T07:55:13;5.43;;;1.20;;
32186;SDS011;18686;53.084;8.872;2022-09-09T07:57:42;4.68;;;1.50;;
32186;SDS011;18686;53.084;8.872;2022-09-09T08:00:11;4.95;;;1.30;;
32186;SDS011;18686;53.084;8.872;2022-09-09T08:02:46;6.57;;;1.70;;
32186;SDS011;18686;53.084;8.872;2022-09-09T08:05:15;3.90;;;1.50;;
32186;SDS011;18686;53.084;8.872;2022-09-09T08:07:44;2.13;;;0.98;;
32186;SDS011;18686;53.084;8.872;2022-09-09T08:10:15;3.10;;;1.23;;
32186;SDS011;18686;53.084;8.872;2022-09-09T08:12:46;3.80;;;1.40;;
32186;SDS011;18686;53.084;8.872;2022-09-09T08:15:36;2.28;;;1.10;;
32186;SDS011;18686;53.084;8.872;2022-09-09T08:18:04;5.28;;;1.20;;
32186;SDS011;18686;53.084;8.872;2022-09-09T08:20:33;4.30;;;1.40;;
32186;SDS011;18686;53.084;8.872;2022-09-09T08:23:03;3.70;;;1.40;;
32186;SDS011;18686;53.084;8.872;2022-09-09T08:25:34;2.17;;;1.20;;
32186;SDS011;18686;53.084;8.872;2022-09-09T08:28:02;3.38;;;1.35;;
32186;SDS011;18686;53.084;8.872;2022-09-09T08:30:30;4.32;;;1.20;;
32186;SDS011;18686;53.084;8.872;2022-09-09T08:32:58;3.33;;;1.25;;
32186;SDS011;18686;53.084;8.872;2022-09-09T08:35:27;2.53;;;0.90;;
32186;SDS011;18686;53.084;8.872;2022-09-09T08:37:59;3.53;;;1.02;;
32186;SDS011;18686;53.084;8.872;2022-09-09T08:40:32;5.75;;;1.45;;
32186;SDS011;18686;53.084;8.872;2022-09-09T08:43:10;1.77;;;0.77;;
32186;SDS011;18686;53.084;8.872;2022-09-09T08:45:41;2.17;;;0.95;;
32186;SDS011;18686;53.084;8.872;2022-09-09T08:48:22;2.30;;;0.73;;
32186;SDS011;18686;53.084;8.872;2022-09-09T08:51:04;6.20;;;0.85;;
32186;SDS011;18686;53.084;8.872;2022-09-09T08:53:38;2.75;;;1.02;;
32186;SDS011;18686;53.084;8.872;2022-09-09T08:56:11;2.50;;;0.77;;
32186;SDS011;18686;53.084;8.872;2022-09-09T08:58:47;4.72;;;1.05;;
32186;SDS011;18686;53.084;8.872;2022-09-09T09:01:26;2.78;;;1.10;;
32186;SDS011;18686;53.084;8.872;2022-09-09T09:04:13;1.92;;;0.80;;
32186;SDS011;18686;53.084;8.872;2022-09-09T09:06:53;6.20;;;1.10;;
32186;SDS011;18686;53.084;8.872;2022-09-09T09:09:34;2.53;;;1.17;;
32186;SDS011;18686;53.084;8.872;2022-09-09T09:12:16;6.13;;;1.05;;
32186;SDS011;18686;53.084;8.872;2022-09-09T09:14:48;2.75;;;1.15;;
32186;SDS011;18686;53.084;8.872;2022-09-09T09:17:18;3.03;;;1.00;;
32186;SDS011;18686;53.084;8.872;2022-09-09T09:19:48;4.03;;;0.80;;
32186;SDS011;18686;53.084;8.872;2022-09-09T09:22:18;1.70;;;0.60;;
32186;SDS011;18686;53.084;8.872;2022-09-09T09:24:53;4.32;;;1.00;;
32186;SDS011;18686;53.084;8.872;2022-09-09T09:27:32;2.10;;;0.88;;
32186;SDS011;18686;53.084;8.872;2022-09-09T09:30:12;4.15;;;1.02;;
32186;SDS011;18686;53.084;8.872;2022-09-09T09:32:55;3.25;;;1.55;;
32186;SDS011;18686;53.084;8.872;2022-09-09T09:35:25;4.88;;;1.40;;
32186;SDS011;18686;53.084;8.872;2022-09-09T09:37:54;2.53;;;0.90;;
32186;SDS011;18686;53.084;8.872;2022-09-09T09:40:50;6.05;;;1.00;;
32186;SDS011;18686;53.084;8.872;2022-09-09T09:43:28;3.00;;;0.95;;
32186;SDS011;18686;53.084;8.872;2022-09-09T09:45:59;5.13;;;1.27;;
32186;SDS011;18686;53.084;8.872;2022-09-09T09:48:45;4.25;;;1.10;;
32186;SDS011;18686;53.084;8.872;2022-09-09T09:51:25;2.10;;;1.10;;
32186;SDS011;18686;53.084;8.872;2022-09-09T09:54:02;3.60;;;1.27;;
32186;SDS011;18686;53.084;8.872;2022-09-09T09:56:37;2.92;;;1.17;;
32186;SDS011;18686;53.084;8.872;2022-09-09T09:59:18;4.45;;;1.08;;
32186;SDS011;18686;53.084;8.872;2022-09-09T10:02:11;3.70;;;1.20;;
32186;SDS011;18686;53.084;8.872;2022-09-09T10:04:44;4.43;;;1.27;;
32186;SDS011;18686;53.084;8.872;2022-09-09T10:07:17;2.97;;;1.20;;
32186;SDS011;18686;53.084;8.872;2022-09-09T10:09:47;4.75;;;1.35;;
32186;SDS011;18686;53.084;8.872;2022-09-09T10:12:22;11.13;;;2.08;;
32186;SDS011;18686;53.084;8.872;2022-09-09T10:15:02;4.93;;;1.08;;
32186;SDS011;18686;53.084;8.872;2022-09-09T10:17:40;4.10;;;1.20;;
32186;SDS011;18686;53.084;8.872;2022-09-09T10:20:24;7.97;;;1.90;;
32186;SDS011;18686;53.084;8.872;2022-09-09T10:23:03;4.70;;;1.33;;
32186;SDS011;18686;53.084;8.872;2022-09-09T10:25:56;4.38;;;1.58;;
32186;SDS011;18686;53.084;8.872;2022-09-09T10:31:57;3.47;;;1.02;;
32186;SDS011;18686;53.084;8.872;2022-09-09T10:34:43;3.47;;;1.25;;
32186;SDS011;18686;53.084;8.872;2022-09-09T10:37:26;3.33;;;1.23;;
32186;SDS011;18686;53.084;8.872;2022-09-09T10:40:12;6.82;;;1.30;;
32186;SDS011;18686;53.084;8.872;2022-09-09T10:42:50;7.22;;;1.50;;
32186;SDS011;18686;53.084;8.872;2022-09-09T10:45:23;1.63;;;0.90;;
32186;SDS011;18686;53.084;8.872;2022-09-09T10:48:08;3.10;;;1.20;;
32186;SDS011;18686;53.084;8.872;2022-09-09T10:50:51;1.58;;;0.80;;
32186;SDS011;18686;53.084;8.872;2022-09-09T10:53:35;3.65;;;1.30;;
32186;SDS011;18686;53.084;8.872;2022-09-09T10:56:10;3.22;;;1.30;;
32186;SDS011;18686;53.084;8.872;2022-09-09T10:58:42;5.90;;;1.30;;
32186;SDS011;18686;53.084;8.872;2022-09-09T11:01:16;4.13;;;1.20;;
32186;SDS011;18686;53.084;8.872;2022-09-09T11:03:51;2.90;;;0.88;;
32186;SDS011;18686;53.084;8.872;2022-09-09T11:06:23;6.57;;;1.52;;
32186;SDS011;18686;53.084;8.872;2022-09-09T11:08:57;2.88;;;1.20;;
32186;SDS011;18686;53.084;8.872;2022-09-09T11:11:29;2.17;;;0.95;;
32186;SDS011;18686;53.084;8.872;2022-09-09T11:14:04;3.75;;;1.00;;
32186;SDS011;18686;53.084;8.872;2022-09-09T11:16:39;3.10;;;1.40;;
32186;SDS011;18686;53.084;8.872;2022-09-09T11:19:14;5.43;;;1.48;;
32186;SDS011;18686;53.084;8.872;2022-09-09T11:21:49;4.43;;;1.50;;
32186;SDS011;18686;53.084;8.872;2022-09-09T11:24:19;1.75;;;0.77;;
32186;SDS011;18686;53.084;8.872;2022-09-09T11:26:51;1.98;;;0.93;;
32186;SDS011;18686;53.084;8.872;2022-09-09T11:32:48;5.22;;;1.10;;
32186;SDS011;18686;53.084;8.872;2022-09-09T11:35:37;1.98;;;0.90;;
32186;SDS011;18686;53.084;8.872;2022-09-09T11:38:16;3.33;;;1.30;;
32186;SDS011;18686;53.084;8.872;2022-09-09T11:40:53;3.40;;;1.40;;
32186;SDS011;18686;53.084;8.872;2022-09-09T11:43:30;2.97;;;1.15;;
32186;SDS011;18686;53.084;8.872;2022-09-09T11:46:00;3.53;;;1.27;;
32186;SDS011;18686;53.084;8.872;2022-09-09T11:48:32;3.38;;;1.42;;
32186;SDS011;18686;53.084;8.872;2022-09-09T11:51:04;4.93;;;1.70;;
32186;SDS011;18686;53.084;8.872;2022-09-09T11:53:48;3.35;;;1.13;;
32186;SDS011;18686;53.084;8.872;2022-09-09T11:56:26;4.60;;;1.35;;
32186;SDS011;18686;53.084;8.872;2022-09-09T11:58:58;5.18;;;1.50;;
32186;SDS011;18686;53.084;8.872;2022-09-09T12:01:30;3.90;;;1.30;;
32186;SDS011;18686;53.084;8.872;2022-09-09T12:04:26;5.15;;;1.50;;
32186;SDS011;18686;53.084;8.872;2022-09-09T12:07:00;5.43;;;1.50;;
32186;SDS011;18686;53.084;8.872;2022-09-09T12:09:43;7.15;;;1.42;;
32186;SDS011;18686;53.084;8.872;2022-09-09T12:12:22;5.75;;;1.60;;
32186;SDS011;18686;53.084;8.872;2022-09-09T12:14:56;5.88;;;1.70;;
32186;SDS011;18686;53.084;8.872;2022-09-09T12:20:03;6.07;;;2.03;;
32186;SDS011;18686;53.084;8.872;2022-09-09T12:22:43;4.88;;;1.67;;
32186;SDS011;18686;53.084;8.872;2022-09-09T12:25:30;6.75;;;2.20;;
32186;SDS011;18686;53.084;8.872;2022-09-09T12:28:06;11.23;;;2.85;;
32186;SDS011;18686;53.084;8.872;2022-09-09T12:30:41;13.93;;;3.80;;
32186;SDS011;18686;53.084;8.872;2022-09-09T12:33:17;8.55;;;2.95;;
32186;SDS011;18686;53.084;8.872;2022-09-09T12:35:47;16.73;;;5.20;;
32186;SDS011;18686;53.084;8.872;2022-09-09T12:38:22;8.63;;;3.58;;
32186;SDS011;18686;53.084;8.872;2022-09-09T12:40:57;8.18;;;3.45;;
32186;SDS011;18686;53.084;8.872;2022-09-09T12:43:27;11.50;;;4.32;;
32186;SDS011;18686;53.084;8.872;2022-09-09T12:45:56;7.03;;;4.32;;
32186;SDS011;18686;53.084;8.872;2022-09-09T12:48:29;10.10;;;5.70;;
32186;SDS011;18686;53.084;8.872;2022-09-09T12:53:33;13.55;;;5.78;;
32186;SDS011;18686;53.084;8.872;2022-09-09T12:56:03;11.75;;;6.78;;
32186;SDS011;18686;53.084;8.872;2022-09-09T12:58:34;13.52;;;6.88;;
32186;SDS011;18686;53.084;8.872;2022-09-09T13:01:05;10.32;;;5.93;;
32186;SDS011;18686;53.084;8.872;2022-09-09T13:03:41;16.50;;;5.78;;
32186;SDS011;18686;53.084;8.872;2022-09-09T13:06:12;13.05;;;4.90;;
32186;SDS011;18686;53.084;8.872;2022-09-09T13:08:47;11.23;;;4.80;;
32186;SDS011;18686;53.084;8.872;2022-09-09T13:11:16;11.38;;;5.60;;
32186;SDS011;18686;53.084;8.872;2022-09-09T13:13:50;12.75;;;5.43;;
32186;SDS011;18686;53.084;8.872;2022-09-09T13:16:20;7.93;;;5.03;;
32186;SDS011;18686;53.084;8.872;2022-09-09T13:18:52;11.80;;;6.00;;
32186;SDS011;18686;53.084;8.872;2022-09-09T13:21:30;13.18;;;5.78;;
32186;SDS011;18686;53.084;8.872;2022-09-09T13:24:02;8.55;;;4.82;;
32186;SDS011;18686;53.084;8.872;2022-09-09T13:26:34;9.05;;;5.40;;
32186;SDS011;18686;53.084;8.872;2022-09-09T13:29:09;9.73;;;4.85;;
32186;SDS011;18686;53.084;8.872;2022-09-09T13:31:45;8.80;;;4.47;;
32186;SDS011;18686;53.084;8.872;2022-09-09T13:34:22;12.20;;;4.45;;
32186;SDS011;18686;53.084;8.872;2022-09-09T13:36:55;8.18;;;4.07;;
32186;SDS011;18686;53.084;8.872;2022-09-09T13:39:29;8.57;;;3.70;;
32186;SDS011;18686;53.084;8.872;2022-09-09T13:41:57;6.97;;;3.30;;
32186;SDS011;18686;53.084;8.872;2022-09-09T13:44:26;6.07;;;3.15;;
32186;SDS011;18686;53.084;8.872;2022-09-09T13:46:59;7.45;;;3.28;;
32186;SDS011;18686;53.084;8.872;2022-09-09T13:49:35;4.32;;;2.90;;
32186;SDS011;18686;53.084;8.872;2022-09-09T13:52:04;7.72;;;3.55;;
32186;SDS011;18686;53.084;8.872;2022-09-09T13:54:37;6.65;;;2.72;;
32186;SDS011;18686;53.084;8.872;2022-09-09T13:57:11;6.80;;;3.20;;
32186;SDS011;18686;53.084;8.872;2022-09-09T13:59:43;10.15;;;3.63;;
32186;SDS011;18686;53.084;8.872;2022-09-09T14:02:30;10.35;;;3.40;;
32186;SDS011;18686;53.084;8.872;2022-09-09T14:04:59;8.98;;;3.83;;
32186;SDS011;18686;53.084;8.872;2022-09-09T14:07:27;9.48;;;3.70;;
32186;SDS011;18686;53.084;8.872;2022-09-09T14:09:56;10.27;;;4.00;;
32186;SDS011;18686;53.084;8.872;2022-09-09T14:12:26;9.40;;;4.35;;
32186;SDS011;18686;53.084;8.872;2022-09-09T14:14:55;14.02;;;4.10;;
32186;SDS011;18686;53.084;8.872;2022-09-09T14:17:23;13.95;;;4.53;;
32186;SDS011;18686;53.084;8.872;2022-09-09T14:19:51;16.35;;;10.98;;
32186;SDS011;18686;53.084;8.872;2022-09-09T14:22:19;30.52;;;23.67;;
32186;SDS011;18686;53.084;8.872;2022-09-09T14:24:47;11.48;;;5.18;;
32186;SDS011;18686;53.084;8.872;2022-09-09T14:27:17;13.52;;;4.55;;
32186;SDS011;18686;53.084;8.872;2022-09-09T14:29:46;7.72;;;4.28;;
32186;SDS011;18686;53.084;8.872;2022-09-09T14:32:14;11.70;;;5.40;;
32186;SDS011;18686;53.084;8.872;2022-09-09T14:34:42;5.93;;;4.72;;
32186;SDS011;18686;53.084;8.872;2022-09-09T14:37:10;11.25;;;5.95;;
32186;SDS011;18686;53.084;8.872;2022-09-09T14:39:39;10.52;;;5.13;;
32186;SDS011;18686;53.084;8.872;2022-09-09T14:42:07;11.82;;;6.45;;
32186;SDS011;18686;53.084;8.872;2022-09-09T14:44:38;9.18;;;6.15;;
32186;SDS011;18686;53.084;8.872;2022-09-09T14:47:07;9.82;;;5.53;;
32186;SDS011;18686;53.084;8.872;2022-09-09T14:49:35;13.93;;;7.10;;
32186;SDS011;18686;53.084;8.872;2022-09-09T14:52:06;11.45;;;7.05;;
32186;SDS011;18686;53.084;8.872;2022-09-09T14:54:35;13.43;;;6.90;;
32186;SDS011;18686;53.084;8.872;2022-09-09T14:57:03;14.10;;;7.78;;
32186;SDS011;18686;53.084;8.872;2022-09-09T14:59:31;19.05;;;8.23;;
32186;SDS011;18686;53.084;8.872;2022-09-09T15:02:02;17.98;;;8.07;;
32186;SDS011;18686;53.084;8.872;2022-09-09T15:04:30;19.02;;;8.82;;
32186;SDS011;18686;53.084;8.872;2022-09-09T15:06:58;14.88;;;7.53;;
32186;SDS011;18686;53.084;8.872;2022-09-09T15:09:26;17.92;;;8.18;;
32186;SDS011;18686;53.084;8.872;2022-09-09T15:11:55;20.52;;;9.18;;
32186;SDS011;18686;53.084;8.872;2022-09-09T15:14:23;16.27;;;8.60;;
32186;SDS011;18686;53.084;8.872;2022-09-09T15:16:52;15.55;;;7.65;;
32186;SDS011;18686;53.084;8.872;2022-09-09T15:19:21;18.70;;;8.20;;
32186;SDS011;18686;53.084;8.872;2022-09-09T15:21:50;21.20;;;7.40;;
32186;SDS011;18686;53.084;8.872;2022-09-09T15:24:18;12.70;;;7.25;;
32186;SDS011;18686;53.084;8.872;2022-09-09T15:26:46;17.75;;;7.88;;